createdAt,value
2023-05-10T00:00:17.754Z,0.90
2023-05-10T00:01:12.551Z,1.00
2023-05-10T00:02:07.754Z,0.70
2023-05-10T00:03:02.814Z,0.80
2023-05-10T00:03:58.078Z,0.60
2023-05-10T00:04:53.182Z,1.00
2023-05-10T00:05:48.453Z,0.90
2023-05-10T00:06:43.674Z,0.80
2023-05-10T00:07:38.930Z,0.80
2023-05-10T00:08:34.301Z,0.80
2023-05-10T00:09:29.460Z,1.00
2023-05-10T00:10:24.674Z,0.90
2023-05-10T00:11:22.198Z,0.80
2023-05-10T00:12:15.157Z,0.70
2023-05-10T00:13:10.466Z,1.20
2023-05-10T00:14:06.437Z,0.90
2023-05-10T00:15:01.584Z,1.00
2023-05-10T00:15:57.480Z,1.00
2023-05-10T00:16:52.719Z,1.20
2023-05-10T00:17:47.971Z,1.10
2023-05-10T00:18:43.819Z,1.20
2023-05-10T00:19:38.917Z,1.20
2023-05-10T00:20:34.263Z,1.00
2023-05-10T00:21:30.354Z,0.80
2023-05-10T00:22:25.704Z,1.00
2023-05-10T00:23:21.636Z,1.00
2023-05-10T00:24:16.734Z,1.10
2023-05-10T00:25:12.093Z,1.00
2023-05-10T00:26:07.963Z,1.10
2023-05-10T00:27:03.186Z,1.10
2023-05-10T00:27:59.042Z,1.40
2023-05-10T00:28:54.282Z,1.50
2023-05-10T00:29:49.704Z,1.20
2023-05-10T00:30:45.646Z,1.40
2023-05-10T00:31:40.799Z,1.10
2023-05-10T00:32:36.065Z,1.30
2023-05-10T00:33:32.486Z,1.10
2023-05-10T00:34:27.472Z,1.20
2023-05-10T00:35:23.358Z,1.10
2023-05-10T00:36:18.408Z,1.40
2023-05-10T00:37:13.580Z,1.40
2023-05-10T00:38:09.366Z,1.20
2023-05-10T00:39:04.691Z,1.10
2023-05-10T00:40:00.473Z,0.80
2023-05-10T00:40:55.729Z,1.20
2023-05-10T00:41:50.936Z,1.00
2023-05-10T00:42:47.032Z,1.40
2023-05-10T00:43:42.379Z,1.20
2023-05-10T00:44:37.626Z,1.20
2023-05-10T00:45:33.969Z,1.10
2023-05-10T00:46:29.319Z,0.90
2023-05-10T00:47:25.032Z,1.00
2023-05-10T00:48:20.439Z,1.10
2023-05-10T00:49:15.537Z,0.90
2023-05-10T00:50:11.354Z,0.90
2023-05-10T00:51:06.591Z,1.20
2023-05-10T00:52:02.567Z,1.10
2023-05-10T00:52:57.536Z,0.90
2023-05-10T00:53:53.751Z,1.10
2023-05-10T00:54:48.601Z,0.90
2023-05-10T00:55:43.859Z,0.90
2023-05-10T00:56:39.269Z,1.20
2023-05-10T00:57:35.419Z,0.90
2023-05-10T00:58:30.502Z,1.00
2023-05-10T00:59:26.421Z,0.90
2023-05-10T01:00:21.502Z,1.00
2023-05-10T01:01:16.920Z,1.00
2023-05-10T01:02:12.628Z,1.00
2023-05-10T01:03:08.068Z,1.00
2023-05-10T01:04:03.724Z,0.80
2023-05-10T01:04:58.872Z,1.00
2023-05-10T01:05:54.172Z,0.90
2023-05-10T01:06:49.861Z,1.20
2023-05-10T01:07:45.226Z,1.00
2023-05-10T01:08:40.494Z,1.10
2023-05-10T01:09:36.935Z,1.20
2023-05-10T01:10:32.106Z,1.00
2023-05-10T01:11:27.943Z,1.00
2023-05-10T01:12:23.240Z,1.20
2023-05-10T01:13:18.451Z,1.00
2023-05-10T01:14:13.690Z,1.30
2023-05-10T01:15:09.019Z,1.40
2023-05-10T01:16:05.182Z,1.20
2023-05-10T01:17:00.397Z,0.90
2023-05-10T01:17:56.258Z,1.10
2023-05-10T01:18:51.452Z,1.00
2023-05-10T01:19:46.859Z,1.00
2023-05-10T01:20:42.546Z,1.00
2023-05-10T01:21:37.797Z,1.20
2023-05-10T01:22:33.728Z,0.90
2023-05-10T01:23:28.841Z,1.00
2023-05-10T01:24:24.334Z,1.00
2023-05-10T01:25:19.895Z,1.10
2023-05-10T01:26:15.112Z,1.10
2023-05-10T01:27:10.435Z,0.80
2023-05-10T01:28:06.533Z,0.80
2023-05-10T01:29:01.816Z,0.80
2023-05-10T01:30:13.609Z,0.90
2023-05-10T01:30:53.880Z,1.10
2023-05-10T01:31:48.083Z,1.00
2023-05-10T01:32:43.327Z,0.90
2023-05-10T01:33:38.660Z,0.80
2023-05-10T01:34:33.950Z,1.00
2023-05-10T01:35:29.153Z,0.80
2023-05-10T01:36:24.448Z,0.90
2023-05-10T01:37:20.239Z,0.90
2023-05-10T01:38:15.508Z,0.90
2023-05-10T01:39:10.632Z,1.00
2023-05-10T01:40:05.886Z,0.80
2023-05-10T01:41:00.994Z,1.10
2023-05-10T01:41:56.129Z,0.90
2023-05-10T01:42:51.082Z,0.90
2023-05-10T01:43:46.401Z,0.70
2023-05-10T01:44:41.255Z,0.80
2023-05-10T01:45:36.357Z,0.90
2023-05-10T01:46:31.367Z,0.90
2023-05-10T01:47:26.638Z,0.70
2023-05-10T01:48:21.599Z,0.90
2023-05-10T01:49:16.587Z,1.00
2023-05-10T01:50:11.564Z,1.00
2023-05-10T01:51:06.680Z,0.80
2023-05-10T01:52:01.651Z,0.80
2023-05-10T01:52:56.810Z,0.60
2023-05-10T01:53:51.770Z,0.90
2023-05-10T01:54:46.912Z,0.90
2023-05-10T01:55:41.872Z,0.80
2023-05-10T01:56:36.881Z,0.70
2023-05-10T01:57:31.938Z,0.50
2023-05-10T01:58:27.295Z,0.80
2023-05-10T01:59:22.121Z,0.60
2023-05-10T02:00:17.510Z,0.60
2023-05-10T02:01:12.370Z,0.80
2023-05-10T02:02:07.557Z,0.50
2023-05-10T02:03:02.992Z,0.60
2023-05-10T02:03:58.725Z,0.70
2023-05-10T02:04:53.928Z,0.60
2023-05-10T02:05:49.202Z,0.40
2023-05-10T02:06:45.449Z,0.50
2023-05-10T02:07:40.706Z,0.40
2023-05-10T02:08:36.531Z,0.40
2023-05-10T02:09:31.757Z,0.30
2023-05-10T02:10:26.892Z,0.30
2023-05-10T02:11:22.674Z,0.30
2023-05-10T02:12:17.954Z,0.20
2023-05-10T02:13:13.861Z,0.30
2023-05-10T02:14:09.174Z,0.20
2023-05-10T02:15:04.306Z,0.30
2023-05-10T02:16:00.140Z,0.20
2023-05-10T02:16:55.421Z,0.30
2023-05-10T02:17:50.779Z,0.40
2023-05-10T02:18:46.999Z,0.20
2023-05-10T02:19:42.256Z,0.20
2023-05-10T02:20:38.033Z,0.20
2023-05-10T02:21:33.303Z,0.50
2023-05-10T02:22:28.411Z,0.40
2023-05-10T02:23:24.280Z,0.20
2023-05-10T02:24:19.570Z,0.50
2023-05-10T02:25:15.518Z,0.30
2023-05-10T02:26:10.617Z,0.30
2023-05-10T02:27:06.022Z,0.20
2023-05-10T02:28:01.848Z,0.30
2023-05-10T02:28:57.115Z,0.30
2023-05-10T02:29:52.469Z,0.10
2023-05-10T02:30:48.611Z,0.40
2023-05-10T02:31:43.851Z,0.10
2023-05-10T02:32:39.746Z,0.20
2023-05-10T02:33:35.034Z,0.10
2023-05-10T02:34:30.274Z,0.20
2023-05-10T02:35:25.950Z,0.10
2023-05-10T02:37:44.928Z,0.20
2023-05-10T02:38:40.036Z,0.10
2023-05-10T02:39:35.256Z,0.20
2023-05-10T02:40:30.498Z,0.20
2023-05-10T02:41:25.705Z,0.10
2023-05-10T02:42:20.907Z,0.20
2023-05-10T02:43:16.373Z,0.10
2023-05-10T02:44:11.513Z,0.10
2023-05-10T02:45:06.588Z,0.20
2023-05-10T02:46:01.848Z,0.10
2023-05-10T02:46:57.111Z,0.10
2023-05-10T02:47:52.501Z,0.10
2023-05-10T02:48:47.646Z,0.30
2023-05-10T02:49:42.645Z,0.00
2023-05-10T02:50:37.818Z,0.00
2023-05-10T02:51:32.970Z,0.10
2023-05-10T02:52:28.239Z,0.10
2023-05-10T02:53:23.396Z,0.10
2023-05-10T02:54:18.622Z,0.10
2023-05-10T02:55:13.851Z,0.30
2023-05-10T02:56:09.109Z,0.10
2023-05-10T02:57:04.240Z,0.10
2023-05-10T02:57:59.628Z,0.20
2023-05-10T02:58:54.742Z,0.10
2023-05-10T02:59:50.056Z,0.00
2023-05-10T03:00:45.086Z,0.10
2023-05-10T03:01:40.426Z,0.10
2023-05-10T03:02:35.544Z,0.20
2023-05-10T03:03:30.818Z,0.20
2023-05-10T03:04:26.068Z,0.10
2023-05-10T03:05:21.280Z,0.20
2023-05-10T03:06:16.505Z,0.10
2023-05-10T03:07:11.757Z,0.20
2023-05-10T03:08:07.062Z,0.00
2023-05-10T03:09:02.186Z,0.10
2023-05-10T03:09:57.384Z,0.00
2023-05-10T03:10:52.665Z,0.10
2023-05-10T03:11:47.768Z,0.10
2023-05-10T03:12:43.072Z,0.10
2023-05-10T03:13:38.211Z,0.10
2023-05-10T03:14:33.475Z,0.10
2023-05-10T03:15:28.711Z,0.30
2023-05-10T03:16:23.995Z,0.20
2023-05-10T03:17:19.213Z,0.10
2023-05-10T03:18:14.532Z,0.00
2023-05-10T03:19:09.762Z,0.10
2023-05-10T03:20:04.906Z,0.00
2023-05-10T03:21:00.082Z,0.10
2023-05-10T03:21:55.302Z,0.10
2023-05-10T03:22:50.532Z,0.20
2023-05-10T03:23:46.325Z,0.10
2023-05-10T03:24:40.936Z,0.10
2023-05-10T03:25:36.171Z,0.10
2023-05-10T03:26:31.482Z,0.00
2023-05-10T03:27:26.682Z,0.00
2023-05-10T03:28:21.832Z,0.10
2023-05-10T03:29:16.979Z,0.00
2023-05-10T03:30:12.186Z,0.10
2023-05-10T03:31:07.524Z,0.40
2023-05-10T03:32:02.686Z,0.20
2023-05-10T03:32:58.069Z,0.20
2023-05-10T03:33:53.379Z,0.00
2023-05-10T03:34:48.486Z,0.00
2023-05-10T03:35:43.742Z,0.10
2023-05-10T03:36:39.071Z,0.20
2023-05-10T03:37:34.335Z,0.10
2023-05-10T03:38:30.677Z,0.10
2023-05-10T03:39:25.012Z,0.10
2023-05-10T03:40:20.273Z,0.10
2023-05-10T03:41:15.416Z,0.10
2023-05-10T03:42:10.732Z,0.10
2023-05-10T03:43:06.052Z,0.10
2023-05-10T03:44:01.277Z,0.10
2023-05-10T03:44:56.403Z,0.10
2023-05-10T03:45:51.685Z,0.20
2023-05-10T03:46:47.032Z,0.20
2023-05-10T03:47:42.403Z,0.10
2023-05-10T03:48:37.672Z,0.20
2023-05-10T03:49:33.084Z,0.20
2023-05-10T03:50:28.243Z,0.30
2023-05-10T03:51:23.439Z,0.20
2023-05-10T03:52:18.783Z,0.10
2023-05-10T03:53:14.160Z,0.10
2023-05-10T03:54:09.387Z,0.20
2023-05-10T03:55:04.781Z,0.20
2023-05-10T03:56:00.085Z,0.30
2023-05-10T03:56:55.493Z,0.20
2023-05-10T03:57:50.841Z,0.20
2023-05-10T03:58:46.726Z,0.10
2023-05-10T03:59:41.609Z,0.20
2023-05-10T04:00:36.976Z,0.00
2023-05-10T04:01:32.315Z,0.10
2023-05-10T04:02:28.114Z,0.20
2023-05-10T04:03:23.371Z,0.10
2023-05-10T04:04:19.567Z,0.20
2023-05-10T04:05:13.767Z,0.20
2023-05-10T04:06:09.059Z,0.10
2023-05-10T04:07:04.345Z,0.20
2023-05-10T04:07:59.735Z,0.20
2023-05-10T04:08:55.267Z,0.20
2023-05-10T04:09:50.583Z,0.10
2023-05-10T04:10:45.893Z,0.10
2023-05-10T04:11:41.255Z,0.20
2023-05-10T04:12:36.465Z,0.30
2023-05-10T04:13:32.042Z,0.10
2023-05-10T04:14:27.190Z,0.30
2023-05-10T04:15:22.623Z,0.20
2023-05-10T04:16:17.922Z,0.30
2023-05-10T04:17:13.467Z,0.10
2023-05-10T04:18:08.951Z,0.50
2023-05-10T04:19:04.321Z,0.50
2023-05-10T04:19:59.318Z,0.30
2023-05-10T04:20:54.811Z,0.20
2023-05-10T04:21:50.091Z,0.30
2023-05-10T04:22:45.505Z,0.30
2023-05-10T04:23:40.739Z,0.20
2023-05-10T04:24:36.200Z,0.10
2023-05-10T04:25:31.581Z,0.30
2023-05-10T04:26:27.107Z,0.10
2023-05-10T04:27:22.367Z,0.20
2023-05-10T04:28:17.989Z,0.30
2023-05-10T04:29:13.526Z,0.20
2023-05-10T04:30:08.659Z,0.20
2023-05-10T04:31:03.987Z,0.20
2023-05-10T04:31:59.293Z,0.40
2023-05-10T04:32:54.942Z,0.30
2023-05-10T04:33:50.241Z,0.30
2023-05-10T04:34:45.600Z,0.30
2023-05-10T04:35:41.308Z,0.30
2023-05-10T04:36:36.744Z,0.40
2023-05-10T04:37:32.217Z,0.20
2023-05-10T04:38:27.718Z,0.30
2023-05-10T04:39:23.049Z,0.40
2023-05-10T04:40:18.791Z,0.30
2023-05-10T04:41:13.949Z,0.30
2023-05-10T04:42:09.529Z,0.20
2023-05-10T04:43:04.672Z,0.40
2023-05-10T04:44:00.305Z,0.60
2023-05-10T04:44:55.553Z,0.50
2023-05-10T04:45:50.903Z,0.40
2023-05-10T04:46:46.392Z,0.30
2023-05-10T04:47:41.765Z,0.40
2023-05-10T04:48:36.742Z,0.30
2023-05-10T04:49:31.755Z,0.40
2023-05-10T04:50:26.709Z,0.40
2023-05-10T04:51:21.901Z,0.30
2023-05-10T04:52:16.830Z,0.30
2023-05-10T04:53:12.519Z,0.40
2023-05-10T04:54:07.167Z,0.30
2023-05-10T04:55:04.884Z,0.30
2023-05-10T04:55:59.930Z,0.50
2023-05-10T04:56:55.061Z,0.50
2023-05-10T04:57:50.129Z,0.50
2023-05-10T04:58:45.225Z,0.30
2023-05-10T04:59:40.228Z,0.40
2023-05-10T05:00:35.205Z,0.40
2023-05-10T05:01:30.369Z,0.70
2023-05-10T05:02:25.423Z,0.40
2023-05-10T05:03:20.613Z,0.50
2023-05-10T05:04:15.404Z,0.50
2023-05-10T05:05:10.561Z,0.90
2023-05-10T05:06:05.546Z,0.40
2023-05-10T05:07:01.084Z,0.60
2023-05-10T05:07:56.582Z,0.70
2023-05-10T05:08:51.936Z,0.50
2023-05-10T05:09:47.367Z,0.40
2023-05-10T05:10:42.771Z,0.50
2023-05-10T05:11:38.134Z,0.60
2023-05-10T05:12:33.538Z,0.50
2023-05-10T05:13:29.526Z,0.60
2023-05-10T05:14:24.572Z,0.70
2023-05-10T05:15:19.994Z,0.40
2023-05-10T05:16:15.401Z,0.50
2023-05-10T05:17:10.902Z,0.70
2023-05-10T05:18:10.116Z,0.50
2023-05-10T05:19:05.756Z,0.90
2023-05-10T05:20:00.827Z,0.50
2023-05-10T05:20:56.280Z,0.50
2023-05-10T05:21:51.787Z,1.00
2023-05-10T05:22:47.384Z,0.70
2023-05-10T05:23:42.857Z,0.60
2023-05-10T05:24:38.432Z,0.60
2023-05-10T05:25:33.669Z,0.50
2023-05-10T05:26:29.471Z,0.50
2023-05-10T05:27:24.786Z,0.50
2023-05-10T05:28:20.138Z,0.70
2023-05-10T05:29:15.550Z,0.50
2023-05-10T05:30:10.998Z,0.40
2023-05-10T05:31:06.599Z,0.80
2023-05-10T05:32:01.738Z,0.40
2023-05-10T05:32:56.765Z,0.40
2023-05-10T05:33:51.757Z,0.40
2023-05-10T05:34:46.881Z,0.60
2023-05-10T05:35:41.862Z,0.50
2023-05-10T05:36:37.588Z,0.80
2023-05-10T05:37:32.153Z,1.10
2023-05-10T05:38:26.981Z,0.60
2023-05-10T05:39:22.085Z,0.50
2023-05-10T05:40:17.054Z,0.40
2023-05-10T05:41:14.919Z,0.60
2023-05-10T05:42:10.352Z,0.60
2023-05-10T05:43:05.589Z,0.40
2023-05-10T05:44:01.038Z,0.40
2023-05-10T05:44:56.718Z,0.40
2023-05-10T05:45:52.222Z,0.40
2023-05-10T05:46:47.651Z,0.40
2023-05-10T05:47:43.353Z,0.40
2023-05-10T05:48:38.717Z,0.60
2023-05-10T05:49:33.992Z,0.30
2023-05-10T05:50:29.655Z,0.60
2023-05-10T05:51:25.045Z,0.50
2023-05-10T05:52:20.463Z,0.50
2023-05-10T05:53:15.839Z,0.50
2023-05-10T05:54:11.383Z,0.40
2023-05-10T05:55:06.352Z,0.40
2023-05-10T05:56:01.484Z,0.80
2023-05-10T05:56:56.516Z,1.00
2023-05-10T05:57:51.743Z,0.50
2023-05-10T05:58:46.593Z,0.50
2023-05-10T05:59:41.616Z,0.70
2023-05-10T06:00:36.609Z,0.40
2023-05-10T06:01:31.762Z,0.40
2023-05-10T06:02:26.802Z,0.80
2023-05-10T06:03:21.931Z,0.50
2023-05-10T06:04:19.235Z,0.40
2023-05-10T06:05:13.409Z,0.50
2023-05-10T06:06:08.400Z,0.50
2023-05-10T06:07:03.416Z,0.40
2023-05-10T06:07:59.362Z,0.60
2023-05-10T06:08:55.038Z,0.30
2023-05-10T06:09:50.453Z,0.40
2023-05-10T06:10:45.618Z,0.70
2023-05-10T06:11:41.498Z,0.50
2023-05-10T06:12:37.195Z,0.50
2023-05-10T06:13:33.683Z,0.40
2023-05-10T06:14:28.960Z,1.10
2023-05-10T06:15:24.199Z,0.70
2023-05-10T06:16:19.753Z,0.50
2023-05-10T06:17:15.885Z,0.50
2023-05-10T06:18:10.360Z,0.30
2023-05-10T06:19:05.322Z,0.30
2023-05-10T06:20:00.464Z,0.50
2023-05-10T06:20:55.545Z,0.40
2023-05-10T06:21:53.083Z,0.50
2023-05-10T06:22:45.906Z,0.30
2023-05-10T06:23:40.916Z,0.60
2023-05-10T06:24:35.991Z,0.30
2023-05-10T06:25:31.096Z,0.60
2023-05-10T06:26:26.208Z,0.50
2023-05-10T06:27:22.201Z,0.30
2023-05-10T06:28:17.300Z,0.60
2023-05-10T06:29:12.447Z,0.50
2023-05-10T06:30:13.046Z,0.30
2023-05-10T06:31:04.417Z,0.40
2023-05-10T06:31:58.761Z,0.40
2023-05-10T06:32:54.305Z,0.30
2023-05-10T06:33:49.669Z,0.60
2023-05-10T06:34:45.237Z,0.40
2023-05-10T06:35:40.792Z,0.60
2023-05-10T06:36:36.084Z,0.40
2023-05-10T06:37:31.638Z,0.40
2023-05-10T06:38:26.839Z,0.40
2023-05-10T06:39:22.218Z,0.70
2023-05-10T06:40:17.618Z,0.40
2023-05-10T06:41:13.054Z,0.70
2023-05-10T06:42:08.591Z,0.30
2023-05-10T06:43:03.856Z,0.60
2023-05-10T06:43:59.190Z,0.30
2023-05-10T06:44:53.965Z,0.30
2023-05-10T06:45:49.029Z,0.60
2023-05-10T06:46:44.110Z,0.30
2023-05-10T06:47:39.665Z,0.60
2023-05-10T06:48:34.260Z,0.30
2023-05-10T06:49:29.288Z,0.50
2023-05-10T06:50:25.575Z,0.60
2023-05-10T06:51:20.816Z,0.50
2023-05-10T06:52:15.705Z,0.60
2023-05-10T06:53:10.705Z,0.50
2023-05-10T06:54:07.739Z,0.30
2023-05-10T06:55:02.329Z,0.50
2023-05-10T06:55:57.784Z,0.50
2023-05-10T06:56:53.460Z,0.40
2023-05-10T06:57:48.837Z,0.60
2023-05-10T06:58:44.362Z,0.30
2023-05-10T06:59:39.738Z,0.70
2023-05-10T07:00:35.404Z,2.80
2023-05-10T07:01:30.731Z,0.70
2023-05-10T07:02:26.326Z,0.70
2023-05-10T07:03:21.529Z,0.50
2023-05-10T07:04:17.069Z,0.40
2023-05-10T07:05:12.557Z,0.50
2023-05-10T07:06:11.366Z,0.50
2023-05-10T07:07:04.895Z,0.40
2023-05-10T07:07:58.102Z,0.40
2023-05-10T07:08:53.258Z,0.80
2023-05-10T07:09:48.334Z,0.30
2023-05-10T07:10:43.400Z,0.50
2023-05-10T07:11:38.563Z,0.40
2023-05-10T07:12:33.715Z,0.40
2023-05-10T07:13:30.614Z,0.60
2023-05-10T07:14:25.577Z,0.60
2023-05-10T07:15:21.305Z,0.50
2023-05-10T07:16:15.795Z,0.50
2023-05-10T07:17:11.021Z,0.40
2023-05-10T07:18:06.020Z,0.40
2023-05-10T07:19:01.016Z,0.30
2023-05-10T07:19:56.000Z,0.50
2023-05-10T07:20:51.446Z,0.40
2023-05-10T07:21:46.870Z,0.40
2023-05-10T07:22:42.523Z,0.50
2023-05-10T07:23:37.650Z,0.40
2023-05-10T07:24:33.160Z,0.60
2023-05-10T07:25:28.531Z,0.70
2023-05-10T07:26:24.078Z,0.50
2023-05-10T07:27:19.587Z,0.60
2023-05-10T07:28:14.990Z,0.60
2023-05-10T07:29:10.431Z,0.40
2023-05-10T07:30:05.812Z,0.70
2023-05-10T07:31:01.236Z,0.50
2023-05-10T07:31:58.825Z,0.60
2023-05-10T07:32:52.235Z,0.60
2023-05-10T07:33:47.514Z,0.60
2023-05-10T07:34:42.891Z,0.50
2023-05-10T07:35:38.428Z,0.70
2023-05-10T07:36:37.896Z,0.70
2023-05-10T07:37:33.276Z,0.90
2023-05-10T07:38:28.634Z,1.10
2023-05-10T07:39:27.266Z,0.70
2023-05-10T07:40:19.536Z,0.70
2023-05-10T07:41:15.378Z,0.70
2023-05-10T07:42:10.486Z,0.50
2023-05-10T07:43:06.033Z,0.60
2023-05-10T07:44:01.407Z,0.90
2023-05-10T07:44:56.934Z,0.80
2023-05-10T07:45:55.427Z,0.80
2023-05-10T07:46:47.937Z,0.80
2023-05-10T07:47:43.327Z,1.10
2023-05-10T07:48:38.751Z,1.00
2023-05-10T07:49:34.187Z,0.80
2023-05-10T07:50:30.201Z,0.60
2023-05-10T07:51:29.437Z,0.70
2023-05-10T07:52:24.743Z,0.80
2023-05-10T07:53:19.803Z,0.80
2023-05-10T07:54:14.982Z,0.80
2023-05-10T07:55:10.016Z,0.70
2023-05-10T07:56:05.061Z,0.70
2023-05-10T07:57:00.086Z,0.90
2023-05-10T07:57:55.143Z,1.40
2023-05-10T07:58:50.135Z,0.80
2023-05-10T07:59:45.258Z,0.60
2023-05-10T08:00:40.320Z,0.70
2023-05-10T08:01:35.504Z,0.70
2023-05-10T08:02:30.530Z,0.70
2023-05-10T08:03:25.558Z,0.60
2023-05-10T08:04:20.732Z,0.40
2023-05-10T08:05:16.105Z,0.40
2023-05-10T08:06:11.183Z,0.50
2023-05-10T08:07:06.690Z,0.60
2023-05-10T08:08:02.524Z,1.20
2023-05-10T08:08:57.768Z,0.80
2023-05-10T08:09:53.482Z,0.60
2023-05-10T08:10:48.925Z,0.60
2023-05-10T08:11:44.399Z,0.50
2023-05-10T08:12:40.263Z,0.60
2023-05-10T08:13:35.606Z,0.80
2023-05-10T08:14:31.024Z,1.00
2023-05-10T08:15:27.671Z,0.60
2023-05-10T08:16:23.240Z,0.60
2023-05-10T08:17:20.068Z,0.60
2023-05-10T08:18:14.406Z,0.70
2023-05-10T08:19:09.725Z,0.90
2023-05-10T08:20:05.711Z,0.60
2023-05-10T08:21:01.132Z,0.50
2023-05-10T08:21:56.965Z,0.80
2023-05-10T08:22:52.427Z,0.50
2023-05-10T08:23:47.848Z,0.60
2023-05-10T08:24:43.901Z,0.60
2023-05-10T08:25:39.287Z,0.50
2023-05-10T08:26:35.771Z,0.40
2023-05-10T08:27:31.034Z,0.40
2023-05-10T08:28:26.513Z,0.50
2023-05-10T08:29:22.358Z,0.60
2023-05-10T08:30:17.904Z,0.50
2023-05-10T08:31:13.487Z,0.40
2023-05-10T08:32:09.145Z,0.40
2023-05-10T08:33:04.691Z,0.60
2023-05-10T08:34:00.386Z,0.40
2023-05-10T08:34:55.672Z,0.30
2023-05-10T08:35:51.388Z,0.40
2023-05-10T08:36:47.048Z,0.40
2023-05-10T08:37:43.544Z,0.20
2023-05-10T08:38:38.002Z,0.40
2023-05-10T08:39:33.113Z,0.40
2023-05-10T08:40:28.107Z,0.30
2023-05-10T08:41:23.253Z,0.30
2023-05-10T08:42:18.180Z,0.40
2023-05-10T08:43:13.239Z,0.40
2023-05-10T08:44:08.266Z,0.30
2023-05-10T08:45:03.390Z,0.30
2023-05-10T08:45:58.386Z,0.30
2023-05-10T08:46:53.493Z,0.40
2023-05-10T08:47:48.547Z,0.50
2023-05-10T08:48:43.603Z,0.40
2023-05-10T08:49:40.667Z,0.30
2023-05-10T08:50:35.638Z,0.30
2023-05-10T08:51:31.846Z,0.20
2023-05-10T08:52:25.850Z,0.30
2023-05-10T08:53:20.943Z,0.30
2023-05-10T08:54:15.963Z,0.40
2023-05-10T08:55:11.002Z,0.50
2023-05-10T08:56:09.578Z,0.40
2023-05-10T08:57:04.569Z,0.30
2023-05-10T08:57:59.592Z,0.40
2023-05-10T08:58:54.646Z,0.40
2023-05-10T08:59:49.783Z,0.50
2023-05-10T09:00:44.798Z,0.40
2023-05-10T09:01:39.888Z,1.00
2023-05-10T09:02:34.870Z,0.30
2023-05-10T09:03:29.928Z,0.30
2023-05-10T09:04:25.673Z,0.30
2023-05-10T09:05:21.682Z,0.30
2023-05-10T09:06:17.357Z,0.50
2023-05-10T09:07:12.816Z,0.50
2023-05-10T09:08:08.222Z,0.20
2023-05-10T09:10:27.502Z,0.50
2023-05-10T09:11:22.829Z,0.40
2023-05-10T09:12:18.266Z,0.40
2023-05-10T09:13:13.650Z,0.30
2023-05-10T09:14:09.219Z,0.40
2023-05-10T09:15:04.769Z,0.40
2023-05-10T09:16:07.009Z,0.30
2023-05-10T09:16:56.844Z,0.50
2023-05-10T09:17:51.383Z,0.30
2023-05-10T09:18:46.945Z,0.50
2023-05-10T09:19:42.362Z,0.30
2023-05-10T09:20:37.875Z,0.40
2023-05-10T09:21:33.159Z,0.20
2023-05-10T09:22:28.509Z,0.20
2023-05-10T09:23:24.033Z,0.30
2023-05-10T09:24:19.493Z,0.40
2023-05-10T09:25:15.429Z,0.40
2023-05-10T09:26:10.892Z,0.30
2023-05-10T09:27:06.239Z,0.60
2023-05-10T09:28:01.749Z,0.20
2023-05-10T09:28:57.184Z,0.20
2023-05-10T09:29:52.589Z,0.30
2023-05-10T09:30:48.149Z,0.30
2023-05-10T09:31:43.536Z,0.20
2023-05-10T09:32:39.823Z,0.30
2023-05-10T09:33:34.669Z,0.20
2023-05-10T09:34:30.248Z,0.30
2023-05-10T09:35:28.035Z,0.30
2023-05-10T09:36:21.371Z,0.30
2023-05-10T09:37:16.773Z,0.20
2023-05-10T09:38:12.454Z,0.50
2023-05-10T09:39:07.861Z,0.50
2023-05-10T09:40:04.129Z,0.20
2023-05-10T09:40:58.762Z,0.40
2023-05-10T09:41:54.260Z,0.20
2023-05-10T09:42:49.683Z,0.30
2023-05-10T09:43:45.392Z,0.30
2023-05-10T09:44:40.844Z,0.20
2023-05-10T09:45:38.523Z,0.20
2023-05-10T09:46:31.895Z,0.30
2023-05-10T09:47:27.491Z,0.30
2023-05-10T09:48:22.876Z,0.20
2023-05-10T09:49:18.460Z,0.30
2023-05-10T09:50:14.068Z,0.30
2023-05-10T09:51:09.517Z,0.30
2023-05-10T09:52:04.922Z,0.30
2023-05-10T09:53:00.392Z,0.20
2023-05-10T09:53:55.859Z,0.20
2023-05-10T09:54:51.412Z,0.20
2023-05-10T09:55:46.923Z,0.20
2023-05-10T09:56:42.264Z,0.10
2023-05-10T09:57:37.714Z,0.20
2023-05-10T09:58:33.285Z,0.30
2023-05-10T09:59:28.869Z,0.30
2023-05-10T10:00:24.344Z,0.20
2023-05-10T10:01:19.861Z,0.30
2023-05-10T10:02:15.261Z,0.20
2023-05-10T10:03:10.707Z,0.20
2023-05-10T10:04:06.357Z,0.40
2023-05-10T10:05:01.924Z,0.30
2023-05-10T10:05:57.473Z,0.30
2023-05-10T10:06:52.678Z,0.20
2023-05-10T10:07:48.290Z,0.20
2023-05-10T10:08:43.658Z,0.30
2023-05-10T10:09:39.271Z,0.20
2023-05-10T10:10:34.663Z,0.20
2023-05-10T10:11:29.985Z,0.20
2023-05-10T10:12:25.317Z,0.30
2023-05-10T10:13:20.787Z,0.20
2023-05-10T10:14:16.148Z,0.20
2023-05-10T10:15:11.694Z,0.30
2023-05-10T10:16:07.199Z,0.30
2023-05-10T10:17:07.655Z,0.60
2023-05-10T10:17:59.226Z,0.30
2023-05-10T10:18:53.705Z,0.50
2023-05-10T10:19:49.017Z,0.60
2023-05-10T10:20:44.667Z,0.40
2023-05-10T10:21:40.155Z,0.30
2023-05-10T10:22:35.680Z,0.40
2023-05-10T10:23:30.986Z,0.30
2023-05-10T10:24:26.631Z,0.20
2023-05-10T10:25:21.861Z,0.20
2023-05-10T10:26:17.219Z,0.30
2023-05-10T10:27:12.584Z,0.30
2023-05-10T10:28:08.041Z,0.30
2023-05-10T10:29:03.529Z,0.20
2023-05-10T10:29:58.939Z,0.20
2023-05-10T10:30:54.378Z,0.20
2023-05-10T10:31:49.908Z,0.20
2023-05-10T10:32:45.361Z,0.40
2023-05-10T10:33:40.869Z,0.30
2023-05-10T10:34:36.252Z,0.20
2023-05-10T10:35:31.738Z,0.30
2023-05-10T10:36:27.261Z,0.20
2023-05-10T10:37:22.866Z,0.20
2023-05-10T10:38:18.171Z,0.20
2023-05-10T10:39:13.663Z,0.20
2023-05-10T10:40:09.088Z,0.30
2023-05-10T10:41:04.598Z,0.40
2023-05-10T10:41:59.979Z,0.20
2023-05-10T10:42:55.267Z,0.40
2023-05-10T10:43:50.708Z,0.40
2023-05-10T10:44:46.280Z,0.20
2023-05-10T10:45:42.181Z,0.40
2023-05-10T10:46:37.284Z,0.20
2023-05-10T10:47:32.762Z,0.20
2023-05-10T10:48:28.061Z,0.30
2023-05-10T10:49:23.777Z,0.20
2023-05-10T10:50:19.255Z,0.30
2023-05-10T10:51:14.883Z,0.10
2023-05-10T10:52:10.235Z,0.20
2023-05-10T10:53:05.623Z,0.30
2023-05-10T10:54:01.060Z,0.30
2023-05-10T10:54:56.479Z,0.20
2023-05-10T10:55:52.053Z,0.20
2023-05-10T10:56:47.636Z,0.20
2023-05-10T10:57:43.261Z,0.40
2023-05-10T10:58:38.523Z,0.20
2023-05-10T10:59:34.123Z,0.20
2023-05-10T11:00:29.554Z,0.30
2023-05-10T11:01:25.078Z,0.30
2023-05-10T11:02:20.538Z,0.30
2023-05-10T11:03:16.098Z,0.40
2023-05-10T11:04:11.454Z,0.30
2023-05-10T11:05:06.892Z,0.40
2023-05-10T11:06:02.321Z,0.40
2023-05-10T11:06:57.970Z,0.20
2023-05-10T11:07:53.425Z,0.50
2023-05-10T11:08:48.881Z,0.30
2023-05-10T11:09:44.324Z,0.40
2023-05-10T11:10:39.878Z,0.40
2023-05-10T11:11:35.348Z,0.40
2023-05-10T11:12:30.749Z,0.50
2023-05-10T11:13:26.246Z,0.40
2023-05-10T11:14:21.637Z,0.30
2023-05-10T11:15:17.677Z,0.30
2023-05-10T11:16:12.817Z,0.30
2023-05-10T11:17:08.332Z,0.30
2023-05-10T11:18:03.839Z,0.20
2023-05-10T11:18:59.318Z,0.20
2023-05-10T11:19:54.757Z,0.40
2023-05-10T11:20:50.089Z,0.30
2023-05-10T11:21:45.509Z,0.30
2023-05-10T11:22:41.271Z,0.30
2023-05-10T11:23:36.668Z,0.20
2023-05-10T11:24:32.196Z,0.30
2023-05-10T11:25:27.761Z,0.40
2023-05-10T11:26:23.186Z,0.20
2023-05-10T11:27:18.795Z,0.30
2023-05-10T11:28:14.090Z,0.40
2023-05-10T11:29:09.634Z,0.20
2023-05-10T11:30:05.233Z,0.20
2023-05-10T11:31:00.676Z,0.20
2023-05-10T11:31:56.260Z,0.30
2023-05-10T11:32:52.143Z,0.30
2023-05-10T11:33:47.569Z,0.30
2023-05-10T11:34:42.987Z,0.40
2023-05-10T11:35:39.518Z,0.40
2023-05-10T11:36:34.278Z,0.30
2023-05-10T11:37:29.148Z,0.30
2023-05-10T11:38:24.134Z,0.30
2023-05-10T11:39:19.188Z,0.60
2023-05-10T11:40:14.290Z,0.40
2023-05-10T11:41:09.395Z,0.20
2023-05-10T11:42:04.397Z,0.40
2023-05-10T11:42:59.433Z,0.20
2023-05-10T11:43:54.426Z,0.30
2023-05-10T11:44:49.512Z,0.30
2023-05-10T11:45:44.509Z,0.30
2023-05-10T11:46:40.406Z,0.50
2023-05-10T11:47:35.738Z,0.40
2023-05-10T11:48:31.143Z,0.30
2023-05-10T11:49:26.614Z,0.50
2023-05-10T11:50:22.039Z,0.30
2023-05-10T11:51:17.421Z,0.40
2023-05-10T11:52:12.836Z,0.50
2023-05-10T11:53:09.002Z,0.50
2023-05-10T11:54:03.700Z,0.30
2023-05-10T11:54:59.175Z,0.30
2023-05-10T11:55:54.732Z,0.40
2023-05-10T11:56:50.224Z,0.20
2023-05-10T11:57:45.518Z,0.30
2023-05-10T11:58:40.943Z,0.50
2023-05-10T11:59:36.453Z,0.20
2023-05-10T12:00:31.542Z,0.30
2023-05-10T12:01:26.675Z,0.30
2023-05-10T12:02:21.681Z,0.40
2023-05-10T12:03:16.839Z,0.30
2023-05-10T12:04:11.924Z,0.40
2023-05-10T12:05:07.053Z,0.30
2023-05-10T12:06:02.008Z,0.30
2023-05-10T12:06:57.111Z,0.30
2023-05-10T12:07:52.076Z,0.20
2023-05-10T12:08:47.132Z,0.40
2023-05-10T12:09:44.500Z,0.20
2023-05-10T12:10:40.141Z,0.20
2023-05-10T12:11:34.177Z,0.40
2023-05-10T12:12:29.345Z,0.30
2023-05-10T12:13:25.362Z,0.80
2023-05-10T12:14:21.047Z,0.90
2023-05-10T12:15:16.437Z,0.50
2023-05-10T12:16:12.178Z,0.60
2023-05-10T12:17:07.694Z,0.40
2023-05-10T12:18:03.003Z,0.50
2023-05-10T12:18:58.461Z,0.40
2023-05-10T12:19:53.908Z,0.10